Bronxville, New York
Current Conditions -  °F | °C
As of 8:56 AM on Thursday 29 Jan 2015 (Local Time) from KHPN Reporting Station
Clear Clear  
Wind Chill:   Ceiling: Unl
Heat Index: 18°   Visibility: 10mi
Dew Point:   Wind: 7mph
Humidity: 45%   Direction: 310°NW
Pressure: 30.3"   Gusts: NA
Location:  40.94°N, 73.83°W
Report Text: KHPN 291356Z 31006KT 10SM CLR M08/M18 A3030 RMK AO2 SLP272 T10781178
Loading
Personal Weather Stations






























Interactive Weather Map New forecast layout! Learn more

10-Day Weather Forecast

Advertisements
Track Severe Weather on mobile